PWSweather.com
Personal Weather Stations
Station Observations
MARRWS
Allansford VictoriaAU 3277

Allansford VictoriaAU 3277

Lat: -38.4003683814149, Lon: 142.569826841354

Elevation: 36

Station Type: Fine Offset X7062

http://home.vicnet.net.au/~marr/Weather/

Latest ConditionsUpdated 10:20:02 PM GMT+10:10 Thursday, Oct 23, 2014
Currently Today's Max Today's Min Today's Average
Temperature 62.1°F16.7°C 77.2°F25.1°C 56.8°F13.8°C 64.1°F17.8°C
Dew Point 56.2°F13.4°C 58.3°F14.6°C 52.7°F11.5°C 55.1°F12.8°C
Winds 6.0 mph ENE9.7 kmh ENE 7.3 mph E11.7 kmh E - 4.7 mph 7.6 kmh
Wind Gusts 13.0 mph20.9 kmh 18.3 mph29.5 kmh - -
Humidity 81% 92% 50% 74%
Pressure 29.69 in1005.4 mb 29.88 in1011.9 mb 29.68 in1005.1 mb -
Hour Temp Dew Point Humidity Winds Wind Gusts Pressure Precip Precip Rate Daily Precip Total
10:20 PM 62.1°F16.7°C 56.2°F13.4°C 81% 6.0 mph ENE9.7 kmh ENE 13.0 mph20.9 kmh 29.69 in1005.4 mb 0.00 in0.0 mm 0.00 in/hr0.0 mm/hr 0.00 in0.0 mm
10:10 PM 62.1°F16.7°C 56.2°F13.4°C 81% 5.0 mph ENE8.0 kmh ENE 12.1 mph19.5 kmh 29.70 in1005.8 mb 0.00 in0.0 mm 0.00 in/hr0.0 mm/hr 0.00 in0.0 mm
10:00 PM 62.2°F16.8°C 56.4°F13.6°C 81% 7.3 mph E11.7 kmh E 18.3 mph29.5 kmh 29.70 in1005.8 mb 0.00 in0.0 mm 0.00 in/hr0.0 mm/hr 0.00 in0.0 mm
09:50 PM 62.2°F16.8°C 56.7°F13.7°C 82% 5.1 mph ENE8.2 kmh ENE 12.1 mph19.5 kmh 29.69 in1005.4 mb 0.00 in0.0 mm 0.00 in/hr0.0 mm/hr 0.00 in0.0 mm
09:40 PM 62.2°F16.8°C 56.7°F13.7°C 82% 5.7 mph ENE9.2 kmh ENE 12.1 mph19.5 kmh 29.70 in1005.8 mb 0.00 in0.0 mm 0.00 in/hr0.0 mm/hr 0.00 in0.0 mm
09:30 PM 62.1°F16.7°C 56.5°F13.6°C 82% 3.0 mph E4.8 kmh E 8.3 mph13.4 kmh 29.70 in1005.8 mb 0.00 in0.0 mm 0.00 in/hr0.0 mm/hr 0.00 in0.0 mm
09:20 PM 62.1°F16.7°C 56.5°F13.6°C 82% 1.2 mph ENE1.9 kmh ENE 3.8 mph6.1 kmh 29.71 in1006.1 mb 0.00 in0.0 mm 0.00 in/hr0.0 mm/hr 0.00 in0.0 mm
09:10 PM 62.1°F16.7°C 56.5°F13.6°C 82% 1.4 mph E2.3 kmh E 4.5 mph7.2 kmh 29.70 in1005.8 mb 0.00 in0.0 mm 0.00 in/hr0.0 mm/hr 0.00 in0.0 mm
09:00 PM 62.1°F16.7°C 56.5°F13.6°C 82% 1.3 mph NE2.1 kmh NE 3.8 mph6.1 kmh 29.72 in1006.4 mb 0.00 in0.0 mm 0.00 in/hr0.0 mm/hr 0.00 in0.0 mm
08:50 PM 61.7°F16.5°C 56.2°F13.4°C 82% 2.3 mph ENE3.7 kmh ENE 6.0 mph9.7 kmh 29.71 in1006.1 mb 0.00 in0.0 mm 0.00 in/hr0.0 mm/hr 0.00 in0.0 mm
08:40 PM 61.5°F16.4°C 56.0°F13.3°C 82% 3.2 mph NE5.1 kmh NE 7.6 mph12.2 kmh 29.71 in1006.1 mb 0.00 in0.0 mm 0.00 in/hr0.0 mm/hr 0.00 in0.0 mm
08:30 PM 61.7°F16.5°C 55.8°F13.2°C 81% 3.9 mph NE6.3 kmh NE 9.8 mph15.8 kmh 29.71 in1006.1 mb 0.00 in0.0 mm 0.00 in/hr0.0 mm/hr 0.00 in0.0 mm
08:20 PM 62.1°F16.7°C 55.8°F13.2°C 80% 4.2 mph NE6.8 kmh NE 10.7 mph17.2 kmh 29.71 in1006.1 mb 0.00 in0.0 mm 0.00 in/hr0.0 mm/hr 0.00 in0.0 mm
08:10 PM 62.6°F17.0°C 56.0°F13.3°C 79% 4.8 mph ENE7.7 kmh ENE 10.7 mph17.2 kmh 29.70 in1005.8 mb 0.00 in0.0 mm 0.00 in/hr0.0 mm/hr 0.00 in0.0 mm
08:00 PM 63.1°F17.3°C 56.5°F13.6°C 79% 5.7 mph ENE9.2 kmh ENE 13.0 mph20.9 kmh 29.70 in1005.8 mb 0.00 in0.0 mm 0.00 in/hr0.0 mm/hr 0.00 in0.0 mm
07:50 PM 63.0°F17.2°C 56.7°F13.7°C 80% 5.8 mph ENE9.3 kmh ENE 13.0 mph20.9 kmh 29.71 in1006.1 mb 0.00 in0.0 mm 0.00 in/hr0.0 mm/hr 0.00 in0.0 mm
07:40 PM 62.4°F16.9°C 56.5°F13.6°C 81% 5.6 mph ENE9.0 kmh ENE 10.7 mph17.2 kmh 29.70 in1005.8 mb 0.00 in0.0 mm 0.00 in/hr0.0 mm/hr 0.00 in0.0 mm
07:30 PM 62.1°F16.7°C 55.8°F13.2°C 80% 5.0 mph NE8.0 kmh NE 13.0 mph20.9 kmh 29.70 in1005.8 mb 0.00 in0.0 mm 0.00 in/hr0.0 mm/hr 0.00 in0.0 mm
07:20 PM 61.9°F16.6°C 55.0°F12.8°C 78% 3.1 mph ENE5.0 kmh ENE 9.2 mph14.8 kmh 29.70 in1005.8 mb 0.00 in0.0 mm 0.00 in/hr0.0 mm/hr 0.00 in0.0 mm
07:10 PM 62.4°F16.9°C 54.8°F12.7°C 76% 2.5 mph ENE4.0 kmh ENE 6.9 mph11.1 kmh 29.70 in1005.8 mb 0.00 in0.0 mm 0.00 in/hr0.0 mm/hr 0.00 in0.0 mm
07:00 PM 63.1°F17.3°C 54.4°F12.4°C 73% 3.2 mph ENE5.1 kmh ENE 7.6 mph12.2 kmh 29.70 in1005.8 mb 0.00 in0.0 mm 0.00 in/hr0.0 mm/hr 0.00 in0.0 mm
06:50 PM 64.2°F17.9°C 55.0°F12.8°C 72% 4.0 mph ENE6.4 kmh ENE 10.7 mph17.2 kmh 29.70 in1005.8 mb 0.00 in0.0 mm 0.00 in/hr0.0 mm/hr 0.00 in0.0 mm
06:40 PM 65.3°F18.5°C 55.3°F12.9°C 70% 5.4 mph NE8.7 kmh NE 13.0 mph20.9 kmh 29.70 in1005.8 mb 0.00 in0.0 mm 0.00 in/hr0.0 mm/hr 0.00 in0.0 mm
06:30 PM 67.8°F19.9°C 55.6°F13.1°C 65% 3.8 mph NE6.1 kmh NE 9.2 mph14.8 kmh 29.70 in1005.8 mb 0.00 in0.0 mm 0.00 in/hr0.0 mm/hr 0.00 in0.0 mm
06:20 PM 71.1°F21.7°C 56.0°F13.3°C 59% 5.6 mph ENE9.0 kmh ENE 9.2 mph14.8 kmh 29.69 in1005.4 mb 0.00 in0.0 mm 0.00 in/hr0.0 mm/hr 0.00 in0.0 mm
06:10 PM 74.7°F23.7°C 56.9°F13.8°C 54% 5.1 mph ENE8.2 kmh ENE 14.5 mph23.3 kmh 29.69 in1005.4 mb 0.00 in0.0 mm 0.00 in/hr0.0 mm/hr 0.00 in0.0 mm
06:00 PM 76.5°F24.7°C 58.1°F14.5°C 53% 3.9 mph ENE6.3 kmh ENE 8.3 mph13.4 kmh 29.69 in1005.4 mb 0.00 in0.0 mm 0.00 in/hr0.0 mm/hr 0.00 in0.0 mm
05:50 PM 74.5°F23.6°C 58.3°F14.6°C 57% 3.5 mph ENE5.6 kmh ENE 7.6 mph12.2 kmh 29.69 in1005.4 mb 0.00 in0.0 mm 0.00 in/hr0.0 mm/hr 0.00 in0.0 mm
05:40 PM 77.2°F25.1°C 57.7°F14.3°C 51% 2.9 mph SE4.7 kmh SE 6.9 mph11.1 kmh 29.68 in1005.1 mb 0.00 in0.0 mm 0.00 in/hr0.0 mm/hr 0.00 in0.0 mm
05:30 PM 77.2°F25.1°C 58.2°F14.6°C 52% 2.9 mph SE4.7 kmh SE 6.9 mph11.1 kmh 29.68 in1005.1 mb 0.00 in0.0 mm 0.00 in/hr0.0 mm/hr 0.00 in0.0 mm
05:20 PM 76.5°F24.7°C 57.6°F14.2°C 52% 3.6 mph SE5.8 kmh SE 6.9 mph11.1 kmh 29.68 in1005.1 mb 0.00 in0.0 mm 0.00 in/hr0.0 mm/hr 0.00 in0.0 mm
05:10 PM 75.6°F24.2°C 56.7°F13.7°C 52% 4.8 mph SE7.7 kmh SE 9.2 mph14.8 kmh 29.68 in1005.1 mb 0.00 in0.0 mm 0.00 in/hr0.0 mm/hr 0.00 in0.0 mm
05:00 PM 75.7°F24.3°C 56.9°F13.8°C 52% 4.6 mph SE7.4 kmh SE 9.8 mph15.8 kmh 29.68 in1005.1 mb 0.00 in0.0 mm 0.00 in/hr0.0 mm/hr 0.00 in0.0 mm
04:50 PM 74.7°F23.7°C 58.0°F14.4°C 56% 4.7 mph SE7.6 kmh SE 9.8 mph15.8 kmh 29.68 in1005.1 mb 0.00 in0.0 mm 0.00 in/hr0.0 mm/hr 0.00 in0.0 mm
04:40 PM 75.0°F23.9°C 57.3°F14.1°C 54% 4.0 mph SE6.4 kmh SE 8.3 mph13.4 kmh 29.68 in1005.1 mb 0.00 in0.0 mm 0.00 in/hr0.0 mm/hr 0.00 in0.0 mm
04:30 PM 74.3°F23.5°C 58.1°F14.5°C 57% 4.6 mph SE7.4 kmh SE 9.8 mph15.8 kmh 29.68 in1005.1 mb 0.00 in0.0 mm 0.00 in/hr0.0 mm/hr 0.00 in0.0 mm
04:20 PM 73.8°F23.2°C 57.1°F13.9°C 56% 5.0 mph SE8.0 kmh SE 10.7 mph17.2 kmh 29.69 in1005.4 mb 0.00 in0.0 mm 0.00 in/hr0.0 mm/hr 0.00 in0.0 mm
04:10 PM 73.8°F23.2°C 57.1°F13.9°C 56% 6.0 mph SE9.7 kmh SE 10.7 mph17.2 kmh 29.69 in1005.4 mb 0.00 in0.0 mm 0.00 in/hr0.0 mm/hr 0.00 in0.0 mm
04:00 PM 73.0°F22.8°C 57.4°F14.1°C 58% 6.1 mph SE9.8 kmh SE 12.1 mph19.5 kmh 29.70 in1005.8 mb 0.00 in0.0 mm 0.00 in/hr0.0 mm/hr 0.00 in0.0 mm
03:50 PM 72.0°F22.2°C 56.9°F13.8°C 59% 5.6 mph SE9.0 kmh SE 13.0 mph20.9 kmh 29.70 in1005.8 mb 0.00 in0.0 mm 0.00 in/hr0.0 mm/hr 0.00 in0.0 mm
03:40 PM 72.5°F22.5°C 56.9°F13.8°C 58% 6.2 mph SE10.0 kmh SE 13.0 mph20.9 kmh 29.70 in1005.8 mb 0.00 in0.0 mm 0.00 in/hr0.0 mm/hr 0.00 in0.0 mm
03:30 PM 73.2°F22.9°C 57.6°F14.2°C 58% 6.0 mph SE9.7 kmh SE 10.7 mph17.2 kmh 29.71 in1006.1 mb 0.00 in0.0 mm 0.00 in/hr0.0 mm/hr 0.00 in0.0 mm
03:20 PM 72.7°F22.6°C 57.1°F13.9°C 58% 6.0 mph SE9.7 kmh SE 13.6 mph21.9 kmh 29.71 in1006.1 mb 0.00 in0.0 mm 0.00 in/hr0.0 mm/hr 0.00 in0.0 mm
03:10 PM 71.6°F22.0°C 56.5°F13.6°C 59% 6.0 mph SE9.7 kmh SE 12.1 mph19.5 kmh 29.71 in1006.1 mb 0.00 in0.0 mm 0.00 in/hr0.0 mm/hr 0.00 in0.0 mm
03:00 PM 71.8°F22.1°C 56.2°F13.4°C 58% 6.4 mph SE10.3 kmh SE 13.0 mph20.9 kmh 29.72 in1006.4 mb 0.00 in0.0 mm 0.00 in/hr0.0 mm/hr 0.00 in0.0 mm
02:50 PM 72.3°F22.4°C 56.7°F13.7°C 58% 6.4 mph ESE10.3 kmh ESE 13.6 mph21.9 kmh 29.72 in1006.4 mb 0.00 in0.0 mm 0.00 in/hr0.0 mm/hr 0.00 in0.0 mm
02:40 PM 72.3°F22.4°C 56.7°F13.7°C 58% 6.2 mph SE10.0 kmh SE 13.6 mph21.9 kmh 29.72 in1006.4 mb 0.00 in0.0 mm 0.00 in/hr0.0 mm/hr 0.00 in0.0 mm
02:30 PM 72.3°F22.4°C 55.8°F13.2°C 56% 6.1 mph SE9.8 kmh SE 13.0 mph20.9 kmh 29.73 in1006.8 mb 0.00 in0.0 mm 0.00 in/hr0.0 mm/hr 0.00 in0.0 mm
02:20 PM 72.7°F22.6°C 55.1°F12.8°C 54% 6.2 mph SE10.0 kmh SE 12.1 mph19.5 kmh 29.73 in1006.8 mb 0.00 in0.0 mm 0.00 in/hr0.0 mm/hr 0.00 in0.0 mm
02:10 PM 74.1°F23.4°C 55.4°F13.0°C 52% 6.3 mph SE10.1 kmh SE 11.4 mph18.3 kmh 29.73 in1006.8 mb 0.00 in0.0 mm 0.00 in/hr0.0 mm/hr 0.00 in0.0 mm
02:00 PM 74.1°F23.4°C 55.9°F13.3°C 53% 6.0 mph SE9.7 kmh SE 10.7 mph17.2 kmh 29.74 in1007.1 mb 0.00 in0.0 mm 0.00 in/hr0.0 mm/hr 0.00 in0.0 mm
01:50 PM 73.9°F23.3°C 55.8°F13.2°C 53% 5.7 mph SE9.2 kmh SE 11.4 mph18.3 kmh 29.75 in1007.5 mb 0.00 in0.0 mm 0.00 in/hr0.0 mm/hr 0.00 in0.0 mm
01:40 PM 73.9°F23.3°C 55.2°F12.9°C 52% 5.8 mph SE9.3 kmh SE 13.0 mph20.9 kmh 29.75 in1007.5 mb 0.00 in0.0 mm 0.00 in/hr0.0 mm/hr 0.00 in0.0 mm
01:30 PM 73.8°F23.2°C 55.6°F13.1°C 53% 5.9 mph SE9.5 kmh SE 10.7 mph17.2 kmh 29.75 in1007.5 mb 0.00 in0.0 mm 0.00 in/hr0.0 mm/hr 0.00 in0.0 mm
01:20 PM 73.6°F23.1°C 55.4°F13.0°C 53% 5.7 mph SSE9.2 kmh SSE 12.1 mph19.5 kmh 29.75 in1007.5 mb 0.00 in0.0 mm 0.00 in/hr0.0 mm/hr 0.00 in0.0 mm
01:10 PM 75.0°F23.9°C 55.7°F13.2°C 51% 4.6 mph SSE7.4 kmh SSE 9.8 mph15.8 kmh 29.76 in1007.8 mb 0.00 in0.0 mm 0.00 in/hr0.0 mm/hr 0.00 in0.0 mm
01:00 PM 75.6°F24.2°C 55.6°F13.1°C 50% 4.3 mph SSE6.9 kmh SSE 9.8 mph15.8 kmh 29.77 in1008.1 mb 0.00 in0.0 mm 0.00 in/hr0.0 mm/hr 0.00 in0.0 mm
12:50 PM 74.8°F23.8°C 56.6°F13.7°C 53% 4.6 mph SE7.4 kmh SE 13.0 mph20.9 kmh 29.77 in1008.1 mb 0.00 in0.0 mm 0.00 in/hr0.0 mm/hr 0.00 in0.0 mm
12:40 PM 73.8°F23.2°C 56.1°F13.4°C 54% 4.5 mph SE7.2 kmh SE 8.3 mph13.4 kmh 29.77 in1008.1 mb 0.00 in0.0 mm 0.00 in/hr0.0 mm/hr 0.00 in0.0 mm
12:30 PM 72.7°F22.6°C 55.1°F12.8°C 54% 4.7 mph SSE7.6 kmh SSE 9.8 mph15.8 kmh 29.78 in1008.5 mb 0.00 in0.0 mm 0.00 in/hr0.0 mm/hr 0.00 in0.0 mm
12:20 PM 72.9°F22.7°C 56.3°F13.5°C 56% 5.0 mph SE8.0 kmh SE 10.7 mph17.2 kmh 29.79 in1008.8 mb 0.00 in0.0 mm 0.00 in/hr0.0 mm/hr 0.00 in0.0 mm
12:10 PM 73.0°F22.8°C 56.9°F13.8°C 57% 4.4 mph SSE7.1 kmh SSE 10.7 mph17.2 kmh 29.79 in1008.8 mb 0.00 in0.0 mm 0.00 in/hr0.0 mm/hr 0.00 in0.0 mm
12:00 PM 72.9°F22.7°C 57.3°F14.1°C 58% 3.5 mph SE5.6 kmh SE 7.6 mph12.2 kmh 29.80 in1009.1 mb 0.00 in0.0 mm 0.00 in/hr0.0 mm/hr 0.00 in0.0 mm
11:50 AM 69.6°F20.9°C 56.0°F13.3°C 62% 4.8 mph ESE7.7 kmh ESE 9.8 mph15.8 kmh 29.80 in1009.1 mb 0.00 in0.0 mm 0.00 in/hr0.0 mm/hr 0.00 in0.0 mm
11:40 AM 69.4°F20.8°C 55.9°F13.3°C 62% 4.4 mph SE7.1 kmh SE 12.1 mph19.5 kmh 29.81 in1009.5 mb 0.00 in0.0 mm 0.00 in/hr0.0 mm/hr 0.00 in0.0 mm
11:30 AM 67.6°F19.8°C 55.5°F13.1°C 65% 3.9 mph SE6.3 kmh SE 9.2 mph14.8 kmh 29.81 in1009.5 mb 0.00 in0.0 mm 0.00 in/hr0.0 mm/hr 0.00 in0.0 mm
11:20 AM 66.0°F18.9°C 55.6°F13.1°C 69% 4.3 mph ESE6.9 kmh ESE 9.8 mph15.8 kmh 29.81 in1009.5 mb 0.00 in0.0 mm 0.00 in/hr0.0 mm/hr 0.00 in0.0 mm
11:10 AM 64.9°F18.3°C 54.9°F12.7°C 70% 4.0 mph SE6.4 kmh SE 9.2 mph14.8 kmh 29.82 in1009.8 mb 0.00 in0.0 mm 0.00 in/hr0.0 mm/hr 0.00 in0.0 mm
11:00 AM 64.2°F17.9°C 55.0°F12.8°C 72% 4.2 mph SE6.8 kmh SE 9.2 mph14.8 kmh 29.83 in1010.2 mb 0.00 in0.0 mm 0.00 in/hr0.0 mm/hr 0.00 in0.0 mm
10:50 AM 63.1°F17.3°C 53.6°F12.0°C 71% 4.7 mph SE7.6 kmh SE 10.7 mph17.2 kmh 29.83 in1010.2 mb 0.00 in0.0 mm 0.00 in/hr0.0 mm/hr 0.00 in0.0 mm
10:40 AM 63.3°F17.4°C 54.2°F12.3°C 72% 4.2 mph ESE6.8 kmh ESE 9.8 mph15.8 kmh 29.84 in1010.5 mb 0.00 in0.0 mm 0.00 in/hr0.0 mm/hr 0.00 in0.0 mm
10:30 AM 63.1°F17.3°C 54.0°F12.2°C 72% 5.0 mph SE8.0 kmh SE 12.1 mph19.5 kmh 29.84 in1010.5 mb 0.00 in0.0 mm 0.00 in/hr0.0 mm/hr 0.00 in0.0 mm
10:20 AM 63.5°F17.5°C 53.9°F12.2°C 71% 5.4 mph SE8.7 kmh SE 13.0 mph20.9 kmh 29.84 in1010.5 mb 0.00 in0.0 mm 0.00 in/hr0.0 mm/hr 0.00 in0.0 mm
10:10 AM 63.3°F17.4°C 54.2°F12.3°C 72% 5.1 mph E8.2 kmh E 12.1 mph19.5 kmh 29.85 in1010.8 mb 0.00 in0.0 mm 0.00 in/hr0.0 mm/hr 0.00 in0.0 mm
10:00 AM 62.2°F16.8°C 53.5°F11.9°C 73% 5.8 mph SE9.3 kmh SE 11.4 mph18.3 kmh 29.85 in1010.8 mb 0.00 in0.0 mm 0.00 in/hr0.0 mm/hr 0.00 in0.0 mm
09:50 AM 61.5°F16.4°C 53.9°F12.2°C 76% 6.3 mph SE10.1 kmh SE 13.0 mph20.9 kmh 29.85 in1010.8 mb 0.00 in0.0 mm 0.00 in/hr0.0 mm/hr 0.00 in0.0 mm
09:40 AM 61.5°F16.4°C 55.0°F12.8°C 79% 5.7 mph SE9.2 kmh SE 10.7 mph17.2 kmh 29.86 in1011.2 mb 0.00 in0.0 mm 0.00 in/hr0.0 mm/hr 0.00 in0.0 mm
09:30 AM 61.0°F16.1°C 54.4°F12.4°C 79% 6.4 mph SE10.3 kmh SE 11.4 mph18.3 kmh 29.86 in1011.2 mb 0.00 in0.0 mm 0.00 in/hr0.0 mm/hr 0.00 in0.0 mm
09:20 AM 61.0°F16.1°C 54.4°F12.4°C 79% 5.0 mph SE8.0 kmh SE 10.7 mph17.2 kmh 29.86 in1011.2 mb 0.00 in0.0 mm 0.00 in/hr0.0 mm/hr 0.00 in0.0 mm
09:10 AM 60.3°F15.7°C 54.4°F12.4°C 81% 4.7 mph ESE7.6 kmh ESE 11.4 mph18.3 kmh 29.86 in1011.2 mb 0.00 in0.0 mm 0.00 in/hr0.0 mm/hr 0.00 in0.0 mm
09:00 AM 60.4°F15.8°C 54.3°F12.4°C 80% 4.1 mph ESE6.6 kmh ESE 10.7 mph17.2 kmh 29.87 in1011.5 mb 0.00 in0.0 mm 0.00 in/hr0.0 mm/hr 0.00 in0.0 mm
08:50 AM 59.9°F15.5°C 54.1°F12.3°C 81% 5.1 mph SE8.2 kmh SE 13.0 mph20.9 kmh 29.87 in1011.5 mb 0.00 in0.0 mm 0.00 in/hr0.0 mm/hr 0.00 in0.0 mm
08:40 AM 59.9°F15.5°C 54.4°F12.4°C 82% 4.0 mph SE6.4 kmh SE 9.8 mph15.8 kmh 29.87 in1011.5 mb 0.00 in0.0 mm 0.00 in/hr0.0 mm/hr 0.00 in0.0 mm
08:30 AM 59.5°F15.3°C 53.7°F12.1°C 81% 5.0 mph SE8.0 kmh SE 11.4 mph18.3 kmh 29.87 in1011.5 mb 0.00 in0.0 mm 0.00 in/hr0.0 mm/hr 0.00 in0.0 mm
08:20 AM 59.5°F15.3°C 53.7°F12.1°C 81% 5.3 mph ESE8.5 kmh ESE 11.4 mph18.3 kmh 29.87 in1011.5 mb 0.00 in0.0 mm 0.00 in/hr0.0 mm/hr 0.00 in0.0 mm
08:10 AM 59.4°F15.2°C 53.5°F11.9°C 81% 5.4 mph ESE8.7 kmh ESE 11.4 mph18.3 kmh 29.87 in1011.5 mb 0.00 in0.0 mm 0.00 in/hr0.0 mm/hr 0.00 in0.0 mm
08:00 AM 59.4°F15.2°C 53.5°F11.9°C 81% 5.0 mph SE8.0 kmh SE 9.8 mph15.8 kmh 29.87 in1011.5 mb 0.00 in0.0 mm 0.00 in/hr0.0 mm/hr 0.00 in0.0 mm
07:50 AM 59.4°F15.2°C 53.5°F11.9°C 81% 4.0 mph SE6.4 kmh SE 9.2 mph14.8 kmh 29.87 in1011.5 mb 0.00 in0.0 mm 0.00 in/hr0.0 mm/hr 0.00 in0.0 mm
07:40 AM 59.0°F15.0°C 53.2°F11.8°C 81% 3.9 mph SE6.3 kmh SE 8.3 mph13.4 kmh 29.88 in1011.9 mb 0.00 in0.0 mm 0.00 in/hr0.0 mm/hr 0.00 in0.0 mm
07:30 AM 58.8°F14.9°C 53.7°F12.1°C 83% 4.1 mph SE6.6 kmh SE 9.2 mph14.8 kmh 29.88 in1011.9 mb 0.00 in0.0 mm 0.00 in/hr0.0 mm/hr 0.00 in0.0 mm
07:20 AM 58.6°F14.8°C 53.5°F11.9°C 83% 4.1 mph SSE6.6 kmh SSE 9.8 mph15.8 kmh 29.88 in1011.9 mb 0.00 in0.0 mm 0.00 in/hr0.0 mm/hr 0.00 in0.0 mm
07:10 AM 58.5°F14.7°C 53.7°F12.1°C 84% 3.7 mph SE6.0 kmh SE 9.2 mph14.8 kmh 29.88 in1011.9 mb 0.00 in0.0 mm 0.00 in/hr0.0 mm/hr 0.00 in0.0 mm
07:00 AM 58.3°F14.6°C 53.5°F11.9°C 84% 3.1 mph SE5.0 kmh SE 9.2 mph14.8 kmh 29.88 in1011.9 mb 0.00 in0.0 mm 0.00 in/hr0.0 mm/hr 0.00 in0.0 mm
06:50 AM 58.1°F14.5°C 53.3°F11.8°C 84% 3.3 mph E5.3 kmh E 7.6 mph12.2 kmh 29.87 in1011.5 mb 0.00 in0.0 mm 0.00 in/hr0.0 mm/hr 0.00 in0.0 mm
06:40 AM 58.1°F14.5°C 53.6°F12.0°C 85% 3.6 mph SE5.8 kmh SE 8.3 mph13.4 kmh 29.87 in1011.5 mb 0.00 in0.0 mm 0.00 in/hr0.0 mm/hr 0.00 in0.0 mm
06:30 AM 57.9°F14.4°C 53.1°F11.7°C 84% 4.0 mph SE6.4 kmh SE 8.3 mph13.4 kmh 29.87 in1011.5 mb 0.00 in0.0 mm 0.00 in/hr0.0 mm/hr 0.00 in0.0 mm
06:20 AM 57.7°F14.3°C 52.9°F11.6°C 84% 4.4 mph SE7.1 kmh SE 10.7 mph17.2 kmh 29.87 in1011.5 mb 0.00 in0.0 mm 0.00 in/hr0.0 mm/hr 0.00 in0.0 mm
06:10 AM 57.6°F14.2°C 53.1°F11.7°C 85% 4.9 mph SE7.9 kmh SE 10.7 mph17.2 kmh 29.86 in1011.2 mb 0.00 in0.0 mm 0.00 in/hr0.0 mm/hr 0.00 in0.0 mm
06:00 AM 57.4°F14.1°C 53.2°F11.8°C 86% 4.3 mph E6.9 kmh E 10.7 mph17.2 kmh 29.86 in1011.2 mb 0.00 in0.0 mm 0.00 in/hr0.0 mm/hr 0.00 in0.0 mm
05:50 AM 57.4°F14.1°C 53.2°F11.8°C 86% 3.1 mph SE5.0 kmh SE 7.6 mph12.2 kmh 29.86 in1011.2 mb 0.00 in0.0 mm 0.00 in/hr0.0 mm/hr 0.00 in0.0 mm
05:40 AM 57.4°F14.1°C 53.2°F11.8°C 86% 3.8 mph SE6.1 kmh SE 8.3 mph13.4 kmh 29.86 in1011.2 mb 0.00 in0.0 mm 0.00 in/hr0.0 mm/hr 0.00 in0.0 mm
05:30 AM 57.4°F14.1°C 53.2°F11.8°C 86% 2.6 mph ESE4.2 kmh ESE 6.9 mph11.1 kmh 29.86 in1011.2 mb 0.00 in0.0 mm 0.00 in/hr0.0 mm/hr 0.00 in0.0 mm
05:20 AM 57.4°F14.1°C 53.2°F11.8°C 86% 3.5 mph ESE5.6 kmh ESE 9.2 mph14.8 kmh 29.85 in1010.8 mb 0.00 in0.0 mm 0.00 in/hr0.0 mm/hr 0.00 in0.0 mm
05:10 AM 57.2°F14.0°C 52.7°F11.5°C 85% 3.8 mph ESE6.1 kmh ESE 9.2 mph14.8 kmh 29.85 in1010.8 mb 0.00 in0.0 mm 0.00 in/hr0.0 mm/hr 0.00 in0.0 mm
05:00 AM 57.2°F14.0°C 53.1°F11.7°C 86% 5.4 mph SE8.7 kmh SE 9.8 mph15.8 kmh 29.85 in1010.8 mb 0.00 in0.0 mm 0.00 in/hr0.0 mm/hr 0.00 in0.0 mm
04:50 AM 57.4°F14.1°C 53.6°F12.0°C 87% 5.4 mph SE8.7 kmh SE 11.4 mph18.3 kmh 29.85 in1010.8 mb 0.00 in0.0 mm 0.00 in/hr0.0 mm/hr 0.00 in0.0 mm
04:40 AM 57.4°F14.1°C 53.6°F12.0°C 87% 4.8 mph SE7.7 kmh SE 9.8 mph15.8 kmh 29.85 in1010.8 mb 0.00 in0.0 mm 0.00 in/hr0.0 mm/hr 0.00 in0.0 mm
04:30 AM 57.4°F14.1°C 53.6°F12.0°C 87% 4.2 mph SE6.8 kmh SE 9.2 mph14.8 kmh 29.86 in1011.2 mb 0.00 in0.0 mm 0.00 in/hr0.0 mm/hr 0.00 in0.0 mm
04:20 AM 57.4°F14.1°C 53.9°F12.2°C 88% 6.2 mph SE10.0 kmh SE 13.6 mph21.9 kmh 29.86 in1011.2 mb 0.00 in0.0 mm 0.00 in/hr0.0 mm/hr 0.00 in0.0 mm
04:10 AM 57.0°F13.9°C 53.8°F12.1°C 89% 5.5 mph SE8.9 kmh SE 10.7 mph17.2 kmh 29.85 in1010.8 mb 0.00 in0.0 mm 0.00 in/hr0.0 mm/hr 0.00 in0.0 mm
04:00 AM 56.8°F13.8°C 53.9°F12.2°C 90% 5.7 mph SE9.2 kmh SE 12.1 mph19.5 kmh 29.84 in1010.5 mb 0.00 in0.0 mm 0.00 in/hr0.0 mm/hr 0.00 in0.0 mm
03:50 AM 56.8°F13.8°C 54.6°F12.6°C 92% 5.0 mph SE8.0 kmh SE 11.4 mph18.3 kmh 29.85 in1010.8 mb 0.00 in0.0 mm 0.00 in/hr0.0 mm/hr 0.00 in0.0 mm
03:40 AM 56.8°F13.8°C 54.6°F12.6°C 92% 4.2 mph SE6.8 kmh SE 8.3 mph13.4 kmh 29.84 in1010.5 mb 0.00 in0.0 mm 0.00 in/hr0.0 mm/hr 0.00 in0.0 mm
03:30 AM 57.2°F14.0°C 54.3°F12.4°C 90% 5.1 mph SE8.2 kmh SE 9.2 mph14.8 kmh 29.84 in1010.5 mb 0.00 in0.0 mm 0.00 in/hr0.0 mm/hr 0.00 in0.0 mm
03:20 AM 57.0°F13.9°C 54.4°F12.4°C 91% 5.5 mph SE8.9 kmh SE 9.8 mph15.8 kmh 29.84 in1010.5 mb 0.00 in0.0 mm 0.00 in/hr0.0 mm/hr 0.00 in0.0 mm
03:10 AM 57.0°F13.9°C 54.1°F12.3°C 90% 4.9 mph SE7.9 kmh SE 11.4 mph18.3 kmh 29.84 in1010.5 mb 0.00 in0.0 mm 0.00 in/hr0.0 mm/hr 0.00 in0.0 mm
03:00 AM 57.4°F14.1°C 54.2°F12.3°C 89% 4.9 mph SE7.9 kmh SE 13.0 mph20.9 kmh 29.84 in1010.5 mb 0.00 in0.0 mm 0.00 in/hr0.0 mm/hr 0.00 in0.0 mm
02:50 AM 57.4°F14.1°C 53.9°F12.2°C 88% 5.3 mph SE8.5 kmh SE 12.1 mph19.5 kmh 29.84 in1010.5 mb 0.00 in0.0 mm 0.00 in/hr0.0 mm/hr 0.00 in0.0 mm
02:40 AM 57.2°F14.0°C 53.7°F12.1°C 88% 4.2 mph SE6.8 kmh SE 9.2 mph14.8 kmh 29.84 in1010.5 mb 0.00 in0.0 mm 0.00 in/hr0.0 mm/hr 0.00 in0.0 mm
02:30 AM 57.2°F14.0°C 54.0°F12.2°C 89% 5.0 mph SE8.0 kmh SE 10.7 mph17.2 kmh 29.84 in1010.5 mb 0.00 in0.0 mm 0.00 in/hr0.0 mm/hr 0.00 in0.0 mm
02:20 AM 57.6°F14.2°C 54.4°F12.4°C 89% 3.9 mph SE6.3 kmh SE 12.1 mph19.5 kmh 29.84 in1010.5 mb 0.00 in0.0 mm 0.00 in/hr0.0 mm/hr 0.00 in0.0 mm
02:10 AM 57.6°F14.2°C 54.0°F12.2°C 88% 4.3 mph SE6.9 kmh SE 12.1 mph19.5 kmh 29.85 in1010.8 mb 0.00 in0.0 mm 0.00 in/hr0.0 mm/hr 0.00 in0.0 mm
02:00 AM 57.6°F14.2°C 54.0°F12.2°C 88% 3.8 mph SE6.1 kmh SE 8.3 mph13.4 kmh 29.85 in1010.8 mb 0.00 in0.0 mm 0.00 in/hr0.0 mm/hr 0.00 in0.0 mm
01:50 AM 57.6°F14.2°C 53.7°F12.1°C 87% 4.7 mph SE7.6 kmh SE 11.4 mph18.3 kmh 29.85 in1010.8 mb 0.00 in0.0 mm 0.00 in/hr0.0 mm/hr 0.00 in0.0 mm
01:40 AM 57.7°F14.3°C 53.9°F12.2°C 87% 5.3 mph SE8.5 kmh SE 12.1 mph19.5 kmh 29.85 in1010.8 mb 0.00 in0.0 mm 0.00 in/hr0.0 mm/hr 0.00 in0.0 mm
01:30 AM 57.7°F14.3°C 53.9°F12.2°C 87% 5.4 mph SE8.7 kmh SE 12.1 mph19.5 kmh 29.85 in1010.8 mb 0.00 in0.0 mm 0.00 in/hr0.0 mm/hr 0.00 in0.0 mm
01:20 AM 57.7°F14.3°C 53.9°F12.2°C 87% 4.8 mph SE7.7 kmh SE 10.7 mph17.2 kmh 29.85 in1010.8 mb 0.00 in0.0 mm 0.00 in/hr0.0 mm/hr 0.00 in0.0 mm
01:10 AM 57.9°F14.4°C 54.1°F12.3°C 87% 4.5 mph SE7.2 kmh SE 9.2 mph14.8 kmh 29.85 in1010.8 mb 0.00 in0.0 mm 0.00 in/hr0.0 mm/hr 0.00 in0.0 mm
01:00 AM 57.9°F14.4°C 54.1°F12.3°C 87% 4.4 mph SE7.1 kmh SE 7.6 mph12.2 kmh 29.85 in1010.8 mb 0.00 in0.0 mm 0.00 in/hr0.0 mm/hr 0.00 in0.0 mm
12:50 AM 57.9°F14.4°C 53.8°F12.1°C 86% 3.7 mph SE6.0 kmh SE 10.7 mph17.2 kmh 29.86 in1011.2 mb 0.00 in0.0 mm 0.00 in/hr0.0 mm/hr 0.00 in0.0 mm
12:40 AM 57.9°F14.4°C 53.8°F12.1°C 86% 4.0 mph SE6.4 kmh SE 9.2 mph14.8 kmh 29.86 in1011.2 mb 0.00 in0.0 mm 0.00 in/hr0.0 mm/hr 0.00 in0.0 mm
12:30 AM 57.9°F14.4°C 53.8°F12.1°C 86% 5.0 mph SSE8.0 kmh SSE 12.1 mph19.5 kmh 29.85 in1010.8 mb 0.00 in0.0 mm 0.00 in/hr0.0 mm/hr 0.00 in0.0 mm
12:20 AM 57.9°F14.4°C 53.8°F12.1°C 86% 5.5 mph SE8.9 kmh SE 12.1 mph19.5 kmh 29.85 in1010.8 mb 0.00 in0.0 mm 0.00 in/hr0.0 mm/hr 0.00 in0.0 mm
12:10 AM 58.1°F14.5°C 53.9°F12.2°C 86% 4.2 mph SE6.8 kmh SE 12.1 mph19.5 kmh 29.86 in1011.2 mb 0.00 in0.0 mm 0.00 in/hr0.0 mm/hr 0.00 in0.0 mm
12:00 AM 58.1°F14.5°C 53.9°F12.2°C 86% 4.1 mph SE6.6 kmh SE 9.8 mph15.8 kmh 29.85 in1010.8 mb 0.00 in0.0 mm 0.00 in/hr0.0 mm/hr 0.00 in0.0 mm